sensor_id;sensor_type;location;lat;lon;timestamp;P1;durP1;ratioP1;P2;durP2;ratioP2
27303;SDS011;14791;52.392;13.092;2024-02-28T00:02:00;8.97;;;8.13;;
27303;SDS011;14791;52.392;13.092;2024-02-28T00:04:29;9.50;;;8.47;;
27303;SDS011;14791;52.392;13.092;2024-02-28T00:06:58;11.67;;;8.73;;
27303;SDS011;14791;52.392;13.092;2024-02-28T00:09:27;10.07;;;9.17;;
27303;SDS011;14791;52.392;13.092;2024-02-28T00:11:56;11.13;;;9.80;;
27303;SDS011;14791;52.392;13.092;2024-02-28T00:14:25;9.80;;;8.80;;
27303;SDS011;14791;52.392;13.092;2024-02-28T00:16:54;10.03;;;9.03;;
27303;SDS011;14791;52.392;13.092;2024-02-28T00:19:23;10.10;;;9.07;;
27303;SDS011;14791;52.392;13.092;2024-02-28T00:21:52;10.87;;;9.77;;
27303;SDS011;14791;52.392;13.092;2024-02-28T00:24:21;9.47;;;8.43;;
27303;SDS011;14791;52.392;13.092;2024-02-28T00:26:50;10.83;;;9.60;;
27303;SDS011;14791;52.392;13.092;2024-02-28T00:29:18;9.37;;;8.47;;
27303;SDS011;14791;52.392;13.092;2024-02-28T00:31:47;10.07;;;9.07;;
27303;SDS011;14791;52.392;13.092;2024-02-28T00:34:16;10.50;;;9.43;;
27303;SDS011;14791;52.392;13.092;2024-02-28T00:36:45;11.97;;;9.27;;
27303;SDS011;14791;52.392;13.092;2024-02-28T00:39:14;9.57;;;8.67;;
27303;SDS011;14791;52.392;13.092;2024-02-28T00:41:43;9.47;;;8.57;;
27303;SDS011;14791;52.392;13.092;2024-02-28T00:44:12;8.83;;;8.03;;
27303;SDS011;14791;52.392;13.092;2024-02-28T00:46:40;9.33;;;8.63;;
27303;SDS011;14791;52.392;13.092;2024-02-28T00:49:09;8.63;;;7.93;;
27303;SDS011;14791;52.392;13.092;2024-02-28T00:51:38;8.30;;;7.50;;
27303;SDS011;14791;52.392;13.092;2024-02-28T00:54:07;8.43;;;7.73;;
27303;SDS011;14791;52.392;13.092;2024-02-28T00:56:36;9.40;;;8.47;;
27303;SDS011;14791;52.392;13.092;2024-02-28T00:59:05;7.97;;;7.27;;
27303;SDS011;14791;52.392;13.092;2024-02-28T01:01:35;11.23;;;8.13;;
27303;SDS011;14791;52.392;13.092;2024-02-28T01:04:04;9.57;;;8.73;;
27303;SDS011;14791;52.392;13.092;2024-02-28T01:06:34;8.47;;;7.77;;
27303;SDS011;14791;52.392;13.092;2024-02-28T01:09:04;8.63;;;7.90;;
27303;SDS011;14791;52.392;13.092;2024-02-28T01:11:33;8.57;;;7.90;;
27303;SDS011;14791;52.392;13.092;2024-02-28T01:14:02;9.83;;;8.93;;
27303;SDS011;14791;52.392;13.092;2024-02-28T01:16:31;7.90;;;7.00;;
27303;SDS011;14791;52.392;13.092;2024-02-28T01:19:00;9.27;;;8.43;;
27303;SDS011;14791;52.392;13.092;2024-02-28T01:21:30;8.37;;;7.63;;
27303;SDS011;14791;52.392;13.092;2024-02-28T01:23:58;8.93;;;7.40;;
27303;SDS011;14791;52.392;13.092;2024-02-28T01:26:27;8.47;;;7.77;;
27303;SDS011;14791;52.392;13.092;2024-02-28T01:28:56;8.10;;;7.50;;
27303;SDS011;14791;52.392;13.092;2024-02-28T01:31:25;7.63;;;7.00;;
27303;SDS011;14791;52.392;13.092;2024-02-28T01:33:54;7.93;;;7.40;;
27303;SDS011;14791;52.392;13.092;2024-02-28T01:36:23;8.10;;;7.50;;
27303;SDS011;14791;52.392;13.092;2024-02-28T01:38:53;7.87;;;7.20;;
27303;SDS011;14791;52.392;13.092;2024-02-28T01:41:22;8.13;;;7.43;;
27303;SDS011;14791;52.392;13.092;2024-02-28T01:43:51;8.83;;;8.03;;
27303;SDS011;14791;52.392;13.092;2024-02-28T01:46:22;9.40;;;8.60;;
27303;SDS011;14791;52.392;13.092;2024-02-28T01:48:58;8.67;;;7.87;;
27303;SDS011;14791;52.392;13.092;2024-02-28T01:51:25;8.73;;;7.70;;
27303;SDS011;14791;52.392;13.092;2024-02-28T01:53:54;8.53;;;7.73;;
27303;SDS011;14791;52.392;13.092;2024-02-28T01:56:24;8.20;;;7.47;;
27303;SDS011;14791;52.392;13.092;2024-02-28T01:58:55;7.53;;;6.77;;
27303;SDS011;14791;52.392;13.092;2024-02-28T02:01:25;8.13;;;7.50;;
27303;SDS011;14791;52.392;13.092;2024-02-28T02:03:55;8.30;;;7.60;;
27303;SDS011;14791;52.392;13.092;2024-02-28T02:06:24;9.37;;;8.57;;
27303;SDS011;14791;52.392;13.092;2024-02-28T02:08:53;8.03;;;7.33;;
27303;SDS011;14791;52.392;13.092;2024-02-28T02:11:23;7.93;;;7.23;;
27303;SDS011;14791;52.392;13.092;2024-02-28T02:13:53;8.87;;;8.20;;
27303;SDS011;14791;52.392;13.092;2024-02-28T02:16:22;8.83;;;7.97;;
27303;SDS011;14791;52.392;13.092;2024-02-28T02:18:53;10.70;;;8.60;;
27303;SDS011;14791;52.392;13.092;2024-02-28T02:21:34;8.27;;;7.57;;
27303;SDS011;14791;52.392;13.092;2024-02-28T02:24:03;7.63;;;6.93;;
27303;SDS011;14791;52.392;13.092;2024-02-28T02:26:32;8.33;;;7.50;;
27303;SDS011;14791;52.392;13.092;2024-02-28T02:29:01;8.80;;;7.90;;
27303;SDS011;14791;52.392;13.092;2024-02-28T02:31:30;8.13;;;7.47;;
27303;SDS011;14791;52.392;13.092;2024-02-28T02:33:59;8.80;;;7.60;;
27303;SDS011;14791;52.392;13.092;2024-02-28T02:36:28;8.93;;;8.07;;
27303;SDS011;14791;52.392;13.092;2024-02-28T02:38:57;9.67;;;8.53;;
27303;SDS011;14791;52.392;13.092;2024-02-28T02:41:26;8.90;;;8.07;;
27303;SDS011;14791;52.392;13.092;2024-02-28T02:43:55;9.67;;;8.87;;
27303;SDS011;14791;52.392;13.092;2024-02-28T02:46:25;9.03;;;8.23;;
27303;SDS011;14791;52.392;13.092;2024-02-28T02:48:54;9.07;;;8.27;;
27303;SDS011;14791;52.392;13.092;2024-02-28T02:51:23;7.83;;;7.33;;
27303;SDS011;14791;52.392;13.092;2024-02-28T02:53:52;8.70;;;7.03;;
27303;SDS011;14791;52.392;13.092;2024-02-28T02:56:21;8.63;;;7.73;;
27303;SDS011;14791;52.392;13.092;2024-02-28T02:58:50;7.83;;;7.20;;
27303;SDS011;14791;52.392;13.092;2024-02-28T03:01:19;7.60;;;7.00;;
27303;SDS011;14791;52.392;13.092;2024-02-28T03:03:48;7.43;;;6.93;;
27303;SDS011;14791;52.392;13.092;2024-02-28T03:06:16;7.23;;;6.73;;
27303;SDS011;14791;52.392;13.092;2024-02-28T03:08:45;8.17;;;7.57;;
27303;SDS011;14791;52.392;13.092;2024-02-28T03:11:14;8.00;;;7.50;;
27303;SDS011;14791;52.392;13.092;2024-02-28T03:13:43;7.13;;;6.67;;
27303;SDS011;14791;52.392;13.092;2024-02-28T03:16:12;7.70;;;7.00;;
27303;SDS011;14791;52.392;13.092;2024-02-28T03:18:41;7.13;;;6.53;;
27303;SDS011;14791;52.392;13.092;2024-02-28T03:21:10;6.47;;;6.07;;
27303;SDS011;14791;52.392;13.092;2024-02-28T03:23:39;6.33;;;5.83;;
27303;SDS011;14791;52.392;13.092;2024-02-28T03:26:08;6.13;;;5.83;;
27303;SDS011;14791;52.392;13.092;2024-02-28T03:28:37;6.13;;;5.63;;
27303;SDS011;14791;52.392;13.092;2024-02-28T03:31:06;6.80;;;6.30;;
27303;SDS011;14791;52.392;13.092;2024-02-28T03:33:34;6.80;;;6.27;;
27303;SDS011;14791;52.392;13.092;2024-02-28T03:36:03;6.37;;;5.73;;
27303;SDS011;14791;52.392;13.092;2024-02-28T03:38:33;6.23;;;5.93;;
27303;SDS011;14791;52.392;13.092;2024-02-28T03:41:02;6.40;;;5.90;;
27303;SDS011;14791;52.392;13.092;2024-02-28T03:43:31;6.03;;;5.73;;
27303;SDS011;14791;52.392;13.092;2024-02-28T03:45:59;6.30;;;5.90;;
27303;SDS011;14791;52.392;13.092;2024-02-28T03:48:29;5.67;;;5.37;;
27303;SDS011;14791;52.392;13.092;2024-02-28T03:50:57;6.80;;;6.37;;
27303;SDS011;14791;52.392;13.092;2024-02-28T03:53:26;5.70;;;5.40;;
27303;SDS011;14791;52.392;13.092;2024-02-28T03:55:55;6.07;;;5.70;;
27303;SDS011;14791;52.392;13.092;2024-02-28T03:58:24;6.20;;;5.80;;
27303;SDS011;14791;52.392;13.092;2024-02-28T04:00:53;6.07;;;5.77;;
27303;SDS011;14791;52.392;13.092;2024-02-28T04:03:22;6.23;;;5.70;;
27303;SDS011;14791;52.392;13.092;2024-02-28T04:05:51;6.10;;;5.70;;
27303;SDS011;14791;52.392;13.092;2024-02-28T04:08:20;5.23;;;4.93;;
27303;SDS011;14791;52.392;13.092;2024-02-28T04:10:49;6.27;;;5.93;;
27303;SDS011;14791;52.392;13.092;2024-02-28T04:13:18;6.30;;;5.80;;
27303;SDS011;14791;52.392;13.092;2024-02-28T04:15:47;5.90;;;5.60;;
27303;SDS011;14791;52.392;13.092;2024-02-28T04:18:16;5.40;;;5.07;;
27303;SDS011;14791;52.392;13.092;2024-02-28T04:20:44;6.10;;;5.70;;
27303;SDS011;14791;52.392;13.092;2024-02-28T04:23:13;5.93;;;5.63;;
27303;SDS011;14791;52.392;13.092;2024-02-28T04:25:43;6.33;;;5.93;;
27303;SDS011;14791;52.392;13.092;2024-02-28T04:28:12;5.87;;;5.47;;
27303;SDS011;14791;52.392;13.092;2024-02-28T04:30:41;5.70;;;5.40;;
27303;SDS011;14791;52.392;13.092;2024-02-28T04:36:55;6.30;;;5.90;;
27303;SDS011;14791;52.392;13.092;2024-02-28T04:39:24;5.63;;;5.33;;
27303;SDS011;14791;52.392;13.092;2024-02-28T04:41:53;6.57;;;6.07;;
27303;SDS011;14791;52.392;13.092;2024-02-28T04:44:22;6.70;;;6.13;;
27303;SDS011;14791;52.392;13.092;2024-02-28T04:46:51;6.00;;;5.70;;
27303;SDS011;14791;52.392;13.092;2024-02-28T04:49:20;6.17;;;5.73;;
27303;SDS011;14791;52.392;13.092;2024-02-28T04:51:50;6.63;;;6.13;;
27303;SDS011;14791;52.392;13.092;2024-02-28T04:54:19;6.00;;;5.67;;
27303;SDS011;14791;52.392;13.092;2024-02-28T04:56:48;5.70;;;5.40;;
27303;SDS011;14791;52.392;13.092;2024-02-28T04:59:18;5.83;;;5.43;;
27303;SDS011;14791;52.392;13.092;2024-02-28T05:01:47;6.23;;;5.87;;
27303;SDS011;14791;52.392;13.092;2024-02-28T05:04:15;5.77;;;5.47;;
27303;SDS011;14791;52.392;13.092;2024-02-28T05:06:44;6.37;;;5.97;;
27303;SDS011;14791;52.392;13.092;2024-02-28T05:09:13;6.33;;;5.83;;
27303;SDS011;14791;52.392;13.092;2024-02-28T05:11:43;6.03;;;5.63;;
27303;SDS011;14791;52.392;13.092;2024-02-28T05:14:12;5.53;;;5.23;;
27303;SDS011;14791;52.392;13.092;2024-02-28T05:16:41;5.63;;;5.33;;
27303;SDS011;14791;52.392;13.092;2024-02-28T05:19:10;5.73;;;5.33;;
27303;SDS011;14791;52.392;13.092;2024-02-28T05:21:39;6.17;;;5.77;;
27303;SDS011;14791;52.392;13.092;2024-02-28T05:24:09;6.00;;;5.70;;
27303;SDS011;14791;52.392;13.092;2024-02-28T05:26:38;5.63;;;5.33;;
27303;SDS011;14791;52.392;13.092;2024-02-28T05:29:07;5.63;;;5.33;;
27303;SDS011;14791;52.392;13.092;2024-02-28T05:31:36;5.67;;;5.37;;
27303;SDS011;14791;52.392;13.092;2024-02-28T05:34:05;6.10;;;5.70;;
27303;SDS011;14791;52.392;13.092;2024-02-28T05:36:34;6.83;;;6.23;;
27303;SDS011;14791;52.392;13.092;2024-02-28T05:39:03;6.90;;;6.43;;
27303;SDS011;14791;52.392;13.092;2024-02-28T05:41:32;6.33;;;5.80;;
27303;SDS011;14791;52.392;13.092;2024-02-28T05:44:01;6.07;;;5.57;;
27303;SDS011;14791;52.392;13.092;2024-02-28T05:46:30;5.17;;;4.87;;
27303;SDS011;14791;52.392;13.092;2024-02-28T05:48:59;4.53;;;4.33;;
27303;SDS011;14791;52.392;13.092;2024-02-28T05:51:28;4.77;;;4.37;;
27303;SDS011;14791;52.392;13.092;2024-02-28T05:53:57;4.93;;;4.70;;
27303;SDS011;14791;52.392;13.092;2024-02-28T05:56:26;5.13;;;4.83;;
27303;SDS011;14791;52.392;13.092;2024-02-28T05:58:54;4.97;;;4.67;;
27303;SDS011;14791;52.392;13.092;2024-02-28T06:01:23;4.27;;;4.07;;
27303;SDS011;14791;52.392;13.092;2024-02-28T06:03:52;4.77;;;4.57;;
27303;SDS011;14791;52.392;13.092;2024-02-28T06:06:21;4.80;;;4.50;;
27303;SDS011;14791;52.392;13.092;2024-02-28T06:08:50;5.43;;;5.03;;
27303;SDS011;14791;52.392;13.092;2024-02-28T06:11:19;5.53;;;5.13;;
27303;SDS011;14791;52.392;13.092;2024-02-28T06:13:49;5.83;;;5.53;;
27303;SDS011;14791;52.392;13.092;2024-02-28T06:16:19;6.70;;;6.20;;
27303;SDS011;14791;52.392;13.092;2024-02-28T06:18:48;6.80;;;6.30;;
27303;SDS011;14791;52.392;13.092;2024-02-28T06:21:17;7.80;;;7.07;;
27303;SDS011;14791;52.392;13.092;2024-02-28T06:23:46;7.67;;;7.17;;
27303;SDS011;14791;52.392;13.092;2024-02-28T06:26:15;8.47;;;7.77;;
27303;SDS011;14791;52.392;13.092;2024-02-28T06:28:44;7.70;;;7.10;;
27303;SDS011;14791;52.392;13.092;2024-02-28T06:31:19;7.03;;;6.53;;
27303;SDS011;14791;52.392;13.092;2024-02-28T06:33:44;7.00;;;6.50;;
27303;SDS011;14791;52.392;13.092;2024-02-28T06:36:13;7.17;;;6.67;;
27303;SDS011;14791;52.392;13.092;2024-02-28T06:38:41;6.63;;;6.23;;
27303;SDS011;14791;52.392;13.092;2024-02-28T06:41:10;7.37;;;6.83;;
27303;SDS011;14791;52.392;13.092;2024-02-28T06:43:40;7.10;;;6.60;;
27303;SDS011;14791;52.392;13.092;2024-02-28T06:46:08;7.20;;;6.73;;
27303;SDS011;14791;52.392;13.092;2024-02-28T06:48:37;5.77;;;5.47;;
27303;SDS011;14791;52.392;13.092;2024-02-28T06:51:06;6.40;;;5.93;;
27303;SDS011;14791;52.392;13.092;2024-02-28T06:53:35;6.47;;;6.00;;
27303;SDS011;14791;52.392;13.092;2024-02-28T06:56:04;5.63;;;5.33;;
27303;SDS011;14791;52.392;13.092;2024-02-28T06:58:33;6.73;;;6.23;;
27303;SDS011;14791;52.392;13.092;2024-02-28T07:01:03;6.80;;;6.20;;
27303;SDS011;14791;52.392;13.092;2024-02-28T07:03:32;6.00;;;5.60;;
27303;SDS011;14791;52.392;13.092;2024-02-28T07:06:01;5.70;;;5.40;;
27303;SDS011;14791;52.392;13.092;2024-02-28T07:08:31;6.53;;;6.13;;
27303;SDS011;14791;52.392;13.092;2024-02-28T07:11:00;6.03;;;5.53;;
27303;SDS011;14791;52.392;13.092;2024-02-28T07:13:29;6.20;;;5.80;;
27303;SDS011;14791;52.392;13.092;2024-02-28T07:15:58;6.40;;;6.00;;
27303;SDS011;14791;52.392;13.092;2024-02-28T07:18:27;6.37;;;5.77;;
27303;SDS011;14791;52.392;13.092;2024-02-28T07:20:57;7.33;;;6.80;;
27303;SDS011;14791;52.392;13.092;2024-02-28T07:23:28;6.13;;;5.77;;
27303;SDS011;14791;52.392;13.092;2024-02-28T07:25:57;6.00;;;5.50;;
27303;SDS011;14791;52.392;13.092;2024-02-28T07:28:26;6.10;;;5.70;;
27303;SDS011;14791;52.392;13.092;2024-02-28T07:30:55;5.87;;;5.50;;
27303;SDS011;14791;52.392;13.092;2024-02-28T07:33:24;6.07;;;5.57;;
27303;SDS011;14791;52.392;13.092;2024-02-28T07:35:53;6.20;;;5.83;;
27303;SDS011;14791;52.392;13.092;2024-02-28T07:38:24;6.17;;;5.77;;
27303;SDS011;14791;52.392;13.092;2024-02-28T07:40:54;6.07;;;5.67;;
27303;SDS011;14791;52.392;13.092;2024-02-28T07:43:23;6.40;;;6.00;;
27303;SDS011;14791;52.392;13.092;2024-02-28T07:45:52;6.40;;;6.00;;
27303;SDS011;14791;52.392;13.092;2024-02-28T07:48:21;7.07;;;5.77;;
27303;SDS011;14791;52.392;13.092;2024-02-28T07:50:50;6.70;;;6.10;;
27303;SDS011;14791;52.392;13.092;2024-02-28T07:53:19;6.77;;;5.70;;
27303;SDS011;14791;52.392;13.092;2024-02-28T07:55:48;7.60;;;6.97;;
27303;SDS011;14791;52.392;13.092;2024-02-28T07:58:17;6.73;;;6.27;;
27303;SDS011;14791;52.392;13.092;2024-02-28T08:00:46;7.03;;;6.43;;
27303;SDS011;14791;52.392;13.092;2024-02-28T08:03:15;6.70;;;6.13;;
27303;SDS011;14791;52.392;13.092;2024-02-28T08:05:44;7.13;;;6.63;;
27303;SDS011;14791;52.392;13.092;2024-02-28T08:08:14;7.53;;;7.07;;
27303;SDS011;14791;52.392;13.092;2024-02-28T08:10:43;7.07;;;6.47;;
27303;SDS011;14791;52.392;13.092;2024-02-28T08:13:13;7.83;;;7.33;;
27303;SDS011;14791;52.392;13.092;2024-02-28T08:15:42;9.03;;;8.33;;
27303;SDS011;14791;52.392;13.092;2024-02-28T08:18:11;7.33;;;6.87;;
27303;SDS011;14791;52.392;13.092;2024-02-28T08:20:40;7.70;;;7.00;;
27303;SDS011;14791;52.392;13.092;2024-02-28T08:23:09;8.80;;;8.00;;
27303;SDS011;14791;52.392;13.092;2024-02-28T08:25:38;8.67;;;7.97;;
27303;SDS011;14791;52.392;13.092;2024-02-28T08:28:07;8.67;;;7.83;;
27303;SDS011;14791;52.392;13.092;2024-02-28T08:30:36;8.13;;;7.20;;
27303;SDS011;14791;52.392;13.092;2024-02-28T08:33:06;7.60;;;7.00;;
27303;SDS011;14791;52.392;13.092;2024-02-28T08:35:36;9.10;;;8.40;;
27303;SDS011;14791;52.392;13.092;2024-02-28T08:38:05;8.13;;;7.47;;
27303;SDS011;14791;52.392;13.092;2024-02-28T08:40:34;8.90;;;8.23;;
27303;SDS011;14791;52.392;13.092;2024-02-28T08:43:03;9.40;;;8.57;;
27303;SDS011;14791;52.392;13.092;2024-02-28T08:45:32;9.67;;;8.87;;
27303;SDS011;14791;52.392;13.092;2024-02-28T08:48:01;7.90;;;7.40;;
27303;SDS011;14791;52.392;13.092;2024-02-28T08:50:30;8.37;;;7.67;;
27303;SDS011;14791;52.392;13.092;2024-02-28T08:52:59;9.07;;;8.27;;
27303;SDS011;14791;52.392;13.092;2024-02-28T08:55:28;9.53;;;8.73;;
27303;SDS011;14791;52.392;13.092;2024-02-28T08:57:57;9.27;;;8.37;;
27303;SDS011;14791;52.392;13.092;2024-02-28T09:00:26;7.80;;;7.37;;
27303;SDS011;14791;52.392;13.092;2024-02-28T09:02:56;8.83;;;8.13;;
27303;SDS011;14791;52.392;13.092;2024-02-28T09:05:24;9.23;;;8.50;;
27303;SDS011;14791;52.392;13.092;2024-02-28T09:07:53;9.00;;;8.00;;
27303;SDS011;14791;52.392;13.092;2024-02-28T09:10:24;9.70;;;8.90;;
27303;SDS011;14791;52.392;13.092;2024-02-28T09:12:53;9.00;;;8.27;;
27303;SDS011;14791;52.392;13.092;2024-02-28T09:15:21;9.33;;;8.40;;
27303;SDS011;14791;52.392;13.092;2024-02-28T09:17:52;9.00;;;8.30;;
27303;SDS011;14791;52.392;13.092;2024-02-28T09:20:21;9.63;;;8.73;;
27303;SDS011;14791;52.392;13.092;2024-02-28T09:22:49;9.13;;;8.43;;
27303;SDS011;14791;52.392;13.092;2024-02-28T09:25:18;9.03;;;8.13;;
27303;SDS011;14791;52.392;13.092;2024-02-28T09:27:48;8.40;;;7.90;;
27303;SDS011;14791;52.392;13.092;2024-02-28T09:30:17;8.37;;;7.80;;
27303;SDS011;14791;52.392;13.092;2024-02-28T09:32:46;9.13;;;8.33;;
27303;SDS011;14791;52.392;13.092;2024-02-28T09:35:15;9.10;;;8.40;;
27303;SDS011;14791;52.392;13.092;2024-02-28T09:37:44;8.93;;;8.27;;
27303;SDS011;14791;52.392;13.092;2024-02-28T09:40:13;8.67;;;7.97;;
27303;SDS011;14791;52.392;13.092;2024-02-28T09:42:42;8.93;;;8.03;;
27303;SDS011;14791;52.392;13.092;2024-02-28T09:45:14;8.07;;;7.43;;
27303;SDS011;14791;52.392;13.092;2024-02-28T09:47:44;8.87;;;8.17;;
27303;SDS011;14791;52.392;13.092;2024-02-28T09:50:14;7.50;;;6.93;;
27303;SDS011;14791;52.392;13.092;2024-02-28T09:52:43;7.57;;;7.07;;
27303;SDS011;14791;52.392;13.092;2024-02-28T09:55:12;7.40;;;6.97;;
27303;SDS011;14791;52.392;13.092;2024-02-28T09:57:41;7.70;;;7.23;;
27303;SDS011;14791;52.392;13.092;2024-02-28T10:00:14;8.43;;;7.50;;
27303;SDS011;14791;52.392;13.092;2024-02-28T10:02:47;8.70;;;7.90;;
27303;SDS011;14791;52.392;13.092;2024-02-28T10:05:18;7.57;;;6.87;;
27303;SDS011;14791;52.392;13.092;2024-02-28T10:07:49;7.80;;;7.10;;
27303;SDS011;14791;52.392;13.092;2024-02-28T10:10:18;9.30;;;7.33;;
27303;SDS011;14791;52.392;13.092;2024-02-28T10:12:47;8.37;;;7.57;;
27303;SDS011;14791;52.392;13.092;2024-02-28T10:15:17;6.70;;;6.33;;
27303;SDS011;14791;52.392;13.092;2024-02-28T10:17:45;8.07;;;7.50;;
27303;SDS011;14791;52.392;13.092;2024-02-28T10:20:15;7.83;;;7.13;;
27303;SDS011;14791;52.392;13.092;2024-02-28T10:22:44;7.13;;;6.73;;
27303;SDS011;14791;52.392;13.092;2024-02-28T10:25:13;7.47;;;6.90;;
27303;SDS011;14791;52.392;13.092;2024-02-28T10:27:43;7.53;;;7.03;;
27303;SDS011;14791;52.392;13.092;2024-02-28T10:30:12;7.37;;;6.77;;
27303;SDS011;14791;52.392;13.092;2024-02-28T10:32:49;8.20;;;7.60;;
27303;SDS011;14791;52.392;13.092;2024-02-28T10:35:18;8.37;;;7.70;;
27303;SDS011;14791;52.392;13.092;2024-02-28T10:37:48;7.27;;;6.87;;
27303;SDS011;14791;52.392;13.092;2024-02-28T10:40:18;7.20;;;6.60;;
27303;SDS011;14791;52.392;13.092;2024-02-28T10:42:49;7.17;;;6.67;;
27303;SDS011;14791;52.392;13.092;2024-02-28T10:45:18;6.33;;;5.93;;
27303;SDS011;14791;52.392;13.092;2024-02-28T10:47:49;7.63;;;6.93;;
27303;SDS011;14791;52.392;13.092;2024-02-28T10:50:18;7.03;;;6.50;;
27303;SDS011;14791;52.392;13.092;2024-02-28T10:52:48;7.57;;;6.97;;
27303;SDS011;14791;52.392;13.092;2024-02-28T10:55:20;7.17;;;6.77;;
27303;SDS011;14791;52.392;13.092;2024-02-28T10:58:02;7.80;;;7.33;;
27303;SDS011;14791;52.392;13.092;2024-02-28T11:00:38;7.90;;;7.23;;
27303;SDS011;14791;52.392;13.092;2024-02-28T11:03:08;8.03;;;7.33;;
27303;SDS011;14791;52.392;13.092;2024-02-28T11:05:39;7.50;;;6.90;;
27303;SDS011;14791;52.392;13.092;2024-02-28T11:08:09;7.47;;;6.87;;
27303;SDS011;14791;52.392;13.092;2024-02-28T11:11:02;6.83;;;6.43;;
27303;SDS011;14791;52.392;13.092;2024-02-28T11:13:27;7.07;;;6.57;;
27303;SDS011;14791;52.392;13.092;2024-02-28T11:16:06;7.03;;;6.53;;
27303;SDS011;14791;52.392;13.092;2024-02-28T11:18:36;7.37;;;6.67;;
27303;SDS011;14791;52.392;13.092;2024-02-28T11:21:14;7.07;;;6.57;;
27303;SDS011;14791;52.392;13.092;2024-02-28T11:23:46;7.83;;;7.23;;
27303;SDS011;14791;52.392;13.092;2024-02-28T11:26:15;7.43;;;6.83;;
27303;SDS011;14791;52.392;13.092;2024-02-28T11:28:45;8.03;;;7.17;;
27303;SDS011;14791;52.392;13.092;2024-02-28T11:31:14;8.10;;;7.40;;
27303;SDS011;14791;52.392;13.092;2024-02-28T11:33:45;7.30;;;6.77;;
27303;SDS011;14791;52.392;13.092;2024-02-28T11:36:14;7.43;;;6.87;;
27303;SDS011;14791;52.392;13.092;2024-02-28T11:38:43;7.63;;;7.03;;
27303;SDS011;14791;52.392;13.092;2024-02-28T11:41:13;7.07;;;6.70;;
27303;SDS011;14791;52.392;13.092;2024-02-28T11:43:42;6.53;;;6.13;;
27303;SDS011;14791;52.392;13.092;2024-02-28T11:46:11;7.53;;;6.93;;
27303;SDS011;14791;52.392;13.092;2024-02-28T11:48:40;9.00;;;6.97;;
27303;SDS011;14791;52.392;13.092;2024-02-28T11:51:09;6.87;;;6.37;;
27303;SDS011;14791;52.392;13.092;2024-02-28T11:53:38;8.53;;;7.93;;
27303;SDS011;14791;52.392;13.092;2024-02-28T11:56:07;7.63;;;7.03;;
27303;SDS011;14791;52.392;13.092;2024-02-28T11:58:36;7.33;;;6.83;;
27303;SDS011;14791;52.392;13.092;2024-02-28T12:01:04;7.10;;;6.60;;
27303;SDS011;14791;52.392;13.092;2024-02-28T12:03:33;7.70;;;7.20;;
27303;SDS011;14791;52.392;13.092;2024-02-28T12:06:02;7.20;;;6.60;;
27303;SDS011;14791;52.392;13.092;2024-02-28T12:08:32;6.33;;;5.97;;
27303;SDS011;14791;52.392;13.092;2024-02-28T12:11:08;7.20;;;6.60;;
27303;SDS011;14791;52.392;13.092;2024-02-28T12:13:37;7.07;;;6.43;;
27303;SDS011;14791;52.392;13.092;2024-02-28T12:16:07;7.53;;;6.73;;
27303;SDS011;14791;52.392;13.092;2024-02-28T12:18:36;7.70;;;7.10;;
27303;SDS011;14791;52.392;13.092;2024-02-28T12:21:05;6.43;;;5.93;;
27303;SDS011;14791;52.392;13.092;2024-02-28T12:23:34;6.87;;;6.37;;
27303;SDS011;14791;52.392;13.092;2024-02-28T12:26:03;6.53;;;6.13;;
27303;SDS011;14791;52.392;13.092;2024-02-28T12:28:33;7.13;;;6.53;;
27303;SDS011;14791;52.392;13.092;2024-02-28T12:31:02;7.10;;;6.70;;
27303;SDS011;14791;52.392;13.092;2024-02-28T12:33:32;7.03;;;6.53;;
27303;SDS011;14791;52.392;13.092;2024-02-28T12:36:01;7.03;;;6.63;;
27303;SDS011;14791;52.392;13.092;2024-02-28T12:38:31;7.03;;;6.43;;
27303;SDS011;14791;52.392;13.092;2024-02-28T12:40:59;6.87;;;6.47;;
27303;SDS011;14791;52.392;13.092;2024-02-28T12:43:29;6.20;;;5.90;;
27303;SDS011;14791;52.392;13.092;2024-02-28T12:45:59;6.27;;;5.87;;
27303;SDS011;14791;52.392;13.092;2024-02-28T12:48:28;7.03;;;6.40;;
27303;SDS011;14791;52.392;13.092;2024-02-28T12:50:58;7.00;;;6.40;;
27303;SDS011;14791;52.392;13.092;2024-02-28T12:53:27;6.90;;;6.50;;
27303;SDS011;14791;52.392;13.092;2024-02-28T12:55:56;6.27;;;5.77;;
27303;SDS011;14791;52.392;13.092;2024-02-28T12:58:24;6.53;;;5.90;;
27303;SDS011;14791;52.392;13.092;2024-02-28T13:00:53;5.67;;;5.27;;
27303;SDS011;14791;52.392;13.092;2024-02-28T13:03:23;5.43;;;5.13;;
27303;SDS011;14791;52.392;13.092;2024-02-28T13:05:52;6.20;;;5.80;;
27303;SDS011;14791;52.392;13.092;2024-02-28T13:08:21;5.77;;;5.47;;
27303;SDS011;14791;52.392;13.092;2024-02-28T13:10:50;6.77;;;6.27;;
27303;SDS011;14791;52.392;13.092;2024-02-28T13:13:18;5.53;;;5.30;;
27303;SDS011;14791;52.392;13.092;2024-02-28T13:15:47;6.27;;;5.83;;
27303;SDS011;14791;52.392;13.092;2024-02-28T13:18:16;6.37;;;4.90;;
27303;SDS011;14791;52.392;13.092;2024-02-28T13:20:46;5.20;;;4.80;;
27303;SDS011;14791;52.392;13.092;2024-02-28T13:23:15;5.53;;;5.12;;
27303;SDS011;14791;52.392;13.092;2024-02-28T13:25:44;5.25;;;5.00;;
27303;SDS011;14791;52.392;13.092;2024-02-28T13:28:13;5.58;;;5.28;;
27303;SDS011;14791;52.392;13.092;2024-02-28T13:30:42;5.65;;;5.35;;
27303;SDS011;14791;52.392;13.092;2024-02-28T13:33:11;5.15;;;4.85;;
27303;SDS011;14791;52.392;13.092;2024-02-28T13:35:40;5.10;;;4.90;;
27303;SDS011;14791;52.392;13.092;2024-02-28T13:38:09;5.33;;;5.12;;
27303;SDS011;14791;52.392;13.092;2024-02-28T13:40:38;5.45;;;5.15;;
27303;SDS011;14791;52.392;13.092;2024-02-28T13:43:08;5.92;;;5.53;;
27303;SDS011;14791;52.392;13.092;2024-02-28T13:45:45;4.62;;;4.40;;
27303;SDS011;14791;52.392;13.092;2024-02-28T13:48:15;5.25;;;5.05;;
27303;SDS011;14791;52.392;13.092;2024-02-28T13:50:49;5.03;;;4.83;;
27303;SDS011;14791;52.392;13.092;2024-02-28T13:53:18;4.60;;;4.40;;
27303;SDS011;14791;52.392;13.092;2024-02-28T13:55:47;5.45;;;5.03;;
27303;SDS011;14791;52.392;13.092;2024-02-28T13:58:16;5.40;;;5.10;;
27303;SDS011;14791;52.392;13.092;2024-02-28T14:00:45;5.30;;;5.00;;
27303;SDS011;14791;52.392;13.092;2024-02-28T14:03:14;5.25;;;4.90;;
27303;SDS011;14791;52.392;13.092;2024-02-28T14:05:43;5.97;;;5.47;;
27303;SDS011;14791;52.392;13.092;2024-02-28T14:08:12;4.87;;;4.75;;
27303;SDS011;14791;52.392;13.092;2024-02-28T14:10:41;4.85;;;4.65;;
27303;SDS011;14791;52.392;13.092;2024-02-28T14:13:10;5.17;;;4.97;;
27303;SDS011;14791;52.392;13.092;2024-02-28T14:15:39;5.50;;;5.10;;
27303;SDS011;14791;52.392;13.092;2024-02-28T14:18:08;5.15;;;4.95;;
27303;SDS011;14791;52.392;13.092;2024-02-28T14:20:37;5.00;;;4.70;;
27303;SDS011;14791;52.392;13.092;2024-02-28T14:23:06;5.40;;;5.00;;
27303;SDS011;14791;52.392;13.092;2024-02-28T14:25:34;5.72;;;5.53;;
27303;SDS011;14791;52.392;13.092;2024-02-28T14:28:04;5.30;;;4.90;;
27303;SDS011;14791;52.392;13.092;2024-02-28T14:30:34;5.72;;;5.42;;
27303;SDS011;14791;52.392;13.092;2024-02-28T14:33:03;5.83;;;5.60;;
27303;SDS011;14791;52.392;13.092;2024-02-28T14:35:32;5.97;;;5.45;;
27303;SDS011;14791;52.392;13.092;2024-02-28T14:38:02;4.92;;;4.72;;
27303;SDS011;14791;52.392;13.092;2024-02-28T14:40:31;6.00;;;5.55;;
27303;SDS011;14791;52.392;13.092;2024-02-28T14:43:00;5.30;;;5.10;;
27303;SDS011;14791;52.392;13.092;2024-02-28T14:45:29;5.10;;;4.90;;
27303;SDS011;14791;52.392;13.092;2024-02-28T14:47:59;5.92;;;5.47;;
27303;SDS011;14791;52.392;13.092;2024-02-28T14:50:28;5.50;;;5.03;;